sensor_id;sensor_type;location;lat;lon;timestamp;P1;durP1;ratioP1;P2;durP2;ratioP2
12802;SDS011;6465;42.700;23.278;2024-02-16T00:01:59;12.43;;;9.70;;
12802;SDS011;6465;42.700;23.278;2024-02-16T00:04:26;13.33;;;9.30;;
12802;SDS011;6465;42.700;23.278;2024-02-16T00:06:53;14.03;;;10.13;;
12802;SDS011;6465;42.700;23.278;2024-02-16T00:09:20;12.10;;;10.03;;
12802;SDS011;6465;42.700;23.278;2024-02-16T00:11:49;12.37;;;9.83;;
12802;SDS011;6465;42.700;23.278;2024-02-16T00:14:17;14.33;;;11.13;;
12802;SDS011;6465;42.700;23.278;2024-02-16T00:16:45;13.47;;;10.87;;
12802;SDS011;6465;42.700;23.278;2024-02-16T00:19:13;12.73;;;10.13;;
12802;SDS011;6465;42.700;23.278;2024-02-16T00:21:41;14.93;;;10.80;;
12802;SDS011;6465;42.700;23.278;2024-02-16T00:24:07;21.30;;;12.57;;
12802;SDS011;6465;42.700;23.278;2024-02-16T00:26:36;53.57;;;21.47;;
12802;SDS011;6465;42.700;23.278;2024-02-16T00:29:06;36.03;;;18.33;;
12802;SDS011;6465;42.700;23.278;2024-02-16T00:31:33;23.77;;;17.73;;
12802;SDS011;6465;42.700;23.278;2024-02-16T00:34:00;25.73;;;16.23;;
12802;SDS011;6465;42.700;23.278;2024-02-16T00:36:27;35.07;;;22.73;;
12802;SDS011;6465;42.700;23.278;2024-02-16T00:38:55;37.57;;;25.93;;
12802;SDS011;6465;42.700;23.278;2024-02-16T00:41:23;39.73;;;20.63;;
12802;SDS011;6465;42.700;23.278;2024-02-16T00:43:51;30.80;;;19.47;;
12802;SDS011;6465;42.700;23.278;2024-02-16T00:46:19;34.40;;;18.53;;
12802;SDS011;6465;42.700;23.278;2024-02-16T00:48:48;24.93;;;16.93;;
12802;SDS011;6465;42.700;23.278;2024-02-16T00:51:15;23.13;;;17.70;;
12802;SDS011;6465;42.700;23.278;2024-02-16T00:53:42;27.43;;;18.30;;
12802;SDS011;6465;42.700;23.278;2024-02-16T00:56:09;28.97;;;20.73;;
12802;SDS011;6465;42.700;23.278;2024-02-16T00:58:36;30.33;;;19.10;;
12802;SDS011;6465;42.700;23.278;2024-02-16T01:01:07;29.33;;;16.33;;
12802;SDS011;6465;42.700;23.278;2024-02-16T01:03:38;24.17;;;14.93;;
12802;SDS011;6465;42.700;23.278;2024-02-16T01:06:05;32.97;;;19.63;;
12802;SDS011;6465;42.700;23.278;2024-02-16T01:08:34;56.07;;;27.13;;
12802;SDS011;6465;42.700;23.278;2024-02-16T01:11:01;78.67;;;43.07;;
12802;SDS011;6465;42.700;23.278;2024-02-16T01:13:28;72.37;;;40.60;;
12802;SDS011;6465;42.700;23.278;2024-02-16T01:15:55;40.50;;;24.73;;
12802;SDS011;6465;42.700;23.278;2024-02-16T01:18:22;41.63;;;22.63;;
12802;SDS011;6465;42.700;23.278;2024-02-16T01:20:50;34.50;;;20.70;;
12802;SDS011;6465;42.700;23.278;2024-02-16T01:23:17;31.37;;;19.67;;
12802;SDS011;6465;42.700;23.278;2024-02-16T01:25:44;42.40;;;25.83;;
12802;SDS011;6465;42.700;23.278;2024-02-16T01:28:11;34.00;;;18.97;;
12802;SDS011;6465;42.700;23.278;2024-02-16T01:30:38;35.27;;;18.93;;
12802;SDS011;6465;42.700;23.278;2024-02-16T01:33:05;30.37;;;18.07;;
12802;SDS011;6465;42.700;23.278;2024-02-16T01:35:33;29.53;;;18.77;;
12802;SDS011;6465;42.700;23.278;2024-02-16T01:38:01;34.67;;;18.73;;
12802;SDS011;6465;42.700;23.278;2024-02-16T01:40:28;34.73;;;20.03;;
12802;SDS011;6465;42.700;23.278;2024-02-16T01:42:55;34.00;;;20.10;;
12802;SDS011;6465;42.700;23.278;2024-02-16T01:45:23;48.60;;;23.10;;
12802;SDS011;6465;42.700;23.278;2024-02-16T01:47:50;34.90;;;18.07;;
12802;SDS011;6465;42.700;23.278;2024-02-16T01:50:18;27.27;;;16.80;;
12802;SDS011;6465;42.700;23.278;2024-02-16T01:52:46;20.50;;;13.63;;
12802;SDS011;6465;42.700;23.278;2024-02-16T01:55:16;29.07;;;17.00;;
12802;SDS011;6465;42.700;23.278;2024-02-16T01:57:42;30.57;;;15.73;;
12802;SDS011;6465;42.700;23.278;2024-02-16T02:00:11;26.80;;;16.30;;
12802;SDS011;6465;42.700;23.278;2024-02-16T02:02:40;21.00;;;12.73;;
12802;SDS011;6465;42.700;23.278;2024-02-16T02:05:10;22.77;;;13.93;;
12802;SDS011;6465;42.700;23.278;2024-02-16T02:07:37;19.87;;;13.13;;
12802;SDS011;6465;42.700;23.278;2024-02-16T02:10:04;24.30;;;14.13;;
12802;SDS011;6465;42.700;23.278;2024-02-16T02:12:32;18.63;;;12.83;;
12802;SDS011;6465;42.700;23.278;2024-02-16T02:15:00;14.53;;;12.00;;
12802;SDS011;6465;42.700;23.278;2024-02-16T02:17:28;23.20;;;13.07;;
12802;SDS011;6465;42.700;23.278;2024-02-16T02:19:55;14.93;;;12.57;;
12802;SDS011;6465;42.700;23.278;2024-02-16T02:22:23;21.40;;;13.83;;
12802;SDS011;6465;42.700;23.278;2024-02-16T02:24:52;15.30;;;11.97;;
12802;SDS011;6465;42.700;23.278;2024-02-16T02:27:20;18.70;;;11.47;;
12802;SDS011;6465;42.700;23.278;2024-02-16T02:29:47;15.23;;;10.97;;
12802;SDS011;6465;42.700;23.278;2024-02-16T02:32:15;19.87;;;12.47;;
12802;SDS011;6465;42.700;23.278;2024-02-16T02:34:42;16.53;;;11.60;;
12802;SDS011;6465;42.700;23.278;2024-02-16T02:37:09;16.80;;;11.73;;
12802;SDS011;6465;42.700;23.278;2024-02-16T02:39:38;17.00;;;11.57;;
12802;SDS011;6465;42.700;23.278;2024-02-16T02:42:06;14.63;;;10.87;;
12802;SDS011;6465;42.700;23.278;2024-02-16T02:44:34;17.10;;;10.73;;
12802;SDS011;6465;42.700;23.278;2024-02-16T02:47:01;16.23;;;10.60;;
12802;SDS011;6465;42.700;23.278;2024-02-16T02:49:28;13.03;;;10.27;;
12802;SDS011;6465;42.700;23.278;2024-02-16T02:51:55;15.50;;;10.27;;
12802;SDS011;6465;42.700;23.278;2024-02-16T02:54:23;17.10;;;10.93;;
12802;SDS011;6465;42.700;23.278;2024-02-16T02:56:52;15.53;;;11.27;;
12802;SDS011;6465;42.700;23.278;2024-02-16T02:59:19;20.87;;;12.63;;
12802;SDS011;6465;42.700;23.278;2024-02-16T03:01:46;24.00;;;16.30;;
12802;SDS011;6465;42.700;23.278;2024-02-16T03:04:13;25.57;;;19.83;;
12802;SDS011;6465;42.700;23.278;2024-02-16T03:06:40;25.47;;;19.80;;
12802;SDS011;6465;42.700;23.278;2024-02-16T03:09:06;31.10;;;23.53;;
12802;SDS011;6465;42.700;23.278;2024-02-16T03:11:34;30.53;;;22.40;;
12802;SDS011;6465;42.700;23.278;2024-02-16T03:14:02;20.83;;;16.70;;
12802;SDS011;6465;42.700;23.278;2024-02-16T03:16:30;20.93;;;15.80;;
12802;SDS011;6465;42.700;23.278;2024-02-16T03:18:57;24.13;;;15.57;;
12802;SDS011;6465;42.700;23.278;2024-02-16T03:21:25;17.07;;;12.47;;
12802;SDS011;6465;42.700;23.278;2024-02-16T03:23:52;19.30;;;12.77;;
12802;SDS011;6465;42.700;23.278;2024-02-16T03:26:19;14.47;;;9.90;;
12802;SDS011;6465;42.700;23.278;2024-02-16T03:28:47;12.80;;;9.90;;
12802;SDS011;6465;42.700;23.278;2024-02-16T03:31:17;9.03;;;7.10;;
12802;SDS011;6465;42.700;23.278;2024-02-16T03:33:44;9.17;;;7.70;;
12802;SDS011;6465;42.700;23.278;2024-02-16T03:36:12;9.93;;;7.47;;
12802;SDS011;6465;42.700;23.278;2024-02-16T03:38:40;11.37;;;8.43;;
12802;SDS011;6465;42.700;23.278;2024-02-16T03:41:11;12.30;;;8.23;;
12802;SDS011;6465;42.700;23.278;2024-02-16T03:43:39;13.47;;;8.30;;
12802;SDS011;6465;42.700;23.278;2024-02-16T03:46:06;8.73;;;7.50;;
12802;SDS011;6465;42.700;23.278;2024-02-16T03:48:34;8.23;;;7.00;;
12802;SDS011;6465;42.700;23.278;2024-02-16T03:51:01;9.40;;;7.53;;
12802;SDS011;6465;42.700;23.278;2024-02-16T03:53:29;9.63;;;7.60;;
12802;SDS011;6465;42.700;23.278;2024-02-16T03:55:56;11.97;;;7.37;;
12802;SDS011;6465;42.700;23.278;2024-02-16T03:58:23;9.73;;;7.40;;
12802;SDS011;6465;42.700;23.278;2024-02-16T04:00:50;11.13;;;7.37;;
12802;SDS011;6465;42.700;23.278;2024-02-16T04:03:19;10.33;;;7.77;;
12802;SDS011;6465;42.700;23.278;2024-02-16T04:05:47;11.17;;;8.67;;
12802;SDS011;6465;42.700;23.278;2024-02-16T04:08:14;7.53;;;6.80;;
12802;SDS011;6465;42.700;23.278;2024-02-16T04:10:41;12.53;;;8.40;;
12802;SDS011;6465;42.700;23.278;2024-02-16T04:13:08;11.47;;;8.57;;
12802;SDS011;6465;42.700;23.278;2024-02-16T04:15:35;17.40;;;12.90;;
12802;SDS011;6465;42.700;23.278;2024-02-16T04:18:03;40.27;;;28.60;;
12802;SDS011;6465;42.700;23.278;2024-02-16T04:20:31;33.90;;;21.73;;
12802;SDS011;6465;42.700;23.278;2024-02-16T04:23:00;15.77;;;13.77;;
12802;SDS011;6465;42.700;23.278;2024-02-16T04:25:27;11.27;;;9.10;;
12802;SDS011;6465;42.700;23.278;2024-02-16T04:27:54;21.60;;;18.03;;
12802;SDS011;6465;42.700;23.278;2024-02-16T04:30:21;22.90;;;17.23;;
12802;SDS011;6465;42.700;23.278;2024-02-16T04:32:48;12.50;;;9.63;;
12802;SDS011;6465;42.700;23.278;2024-02-16T04:35:15;10.40;;;7.83;;
12802;SDS011;6465;42.700;23.278;2024-02-16T04:37:42;9.47;;;7.77;;
12802;SDS011;6465;42.700;23.278;2024-02-16T04:40:12;8.47;;;7.67;;
12802;SDS011;6465;42.700;23.278;2024-02-16T04:42:39;16.23;;;8.87;;
12802;SDS011;6465;42.700;23.278;2024-02-16T04:45:06;12.50;;;9.13;;
12802;SDS011;6465;42.700;23.278;2024-02-16T04:47:37;14.93;;;12.27;;
12802;SDS011;6465;42.700;23.278;2024-02-16T04:50:05;15.60;;;11.20;;
12802;SDS011;6465;42.700;23.278;2024-02-16T04:52:35;10.73;;;8.73;;
12802;SDS011;6465;42.700;23.278;2024-02-16T04:55:03;21.63;;;10.37;;
12802;SDS011;6465;42.700;23.278;2024-02-16T04:57:33;20.10;;;12.50;;
12802;SDS011;6465;42.700;23.278;2024-02-16T05:00:00;19.27;;;11.20;;
12802;SDS011;6465;42.700;23.278;2024-02-16T05:02:27;19.27;;;14.30;;
12802;SDS011;6465;42.700;23.278;2024-02-16T05:04:54;19.63;;;13.97;;
12802;SDS011;6465;42.700;23.278;2024-02-16T05:07:21;19.47;;;13.10;;
12802;SDS011;6465;42.700;23.278;2024-02-16T05:09:48;17.67;;;11.87;;
12802;SDS011;6465;42.700;23.278;2024-02-16T05:12:20;18.60;;;12.63;;
12802;SDS011;6465;42.700;23.278;2024-02-16T05:14:49;18.77;;;13.37;;
12802;SDS011;6465;42.700;23.278;2024-02-16T05:17:17;32.43;;;22.53;;
12802;SDS011;6465;42.700;23.278;2024-02-16T05:19:44;38.20;;;29.07;;
12802;SDS011;6465;42.700;23.278;2024-02-16T05:22:11;54.73;;;38.07;;
12802;SDS011;6465;42.700;23.278;2024-02-16T05:24:38;36.93;;;24.13;;
12802;SDS011;6465;42.700;23.278;2024-02-16T05:27:05;22.63;;;17.80;;
12802;SDS011;6465;42.700;23.278;2024-02-16T05:29:33;26.67;;;17.97;;
12802;SDS011;6465;42.700;23.278;2024-02-16T05:32:01;20.90;;;15.90;;
12802;SDS011;6465;42.700;23.278;2024-02-16T05:34:28;25.97;;;15.20;;
12802;SDS011;6465;42.700;23.278;2024-02-16T05:37:02;26.53;;;17.33;;
12802;SDS011;6465;42.700;23.278;2024-02-16T05:39:31;24.27;;;17.93;;
12802;SDS011;6465;42.700;23.278;2024-02-16T05:42:00;23.93;;;16.40;;
12802;SDS011;6465;42.700;23.278;2024-02-16T05:44:28;23.90;;;16.07;;
12802;SDS011;6465;42.700;23.278;2024-02-16T05:46:55;26.00;;;16.17;;
12802;SDS011;6465;42.700;23.278;2024-02-16T05:49:24;129.40;;;75.13;;
12802;SDS011;6465;42.700;23.278;2024-02-16T05:51:51;257.60;;;142.63;;
12802;SDS011;6465;42.700;23.278;2024-02-16T05:54:38;292.77;;;149.70;;
12802;SDS011;6465;42.700;23.278;2024-02-16T05:57:05;193.27;;;128.30;;
12802;SDS011;6465;42.700;23.278;2024-02-16T05:59:34;406.70;;;258.87;;
12802;SDS011;6465;42.700;23.278;2024-02-16T06:02:01;442.70;;;312.97;;
12802;SDS011;6465;42.700;23.278;2024-02-16T06:04:29;294.57;;;225.07;;
12802;SDS011;6465;42.700;23.278;2024-02-16T06:06:56;171.07;;;126.10;;
12802;SDS011;6465;42.700;23.278;2024-02-16T06:09:23;149.13;;;97.37;;
12802;SDS011;6465;42.700;23.278;2024-02-16T06:11:50;136.47;;;99.00;;
12802;SDS011;6465;42.700;23.278;2024-02-16T06:14:17;126.77;;;93.70;;
12802;SDS011;6465;42.700;23.278;2024-02-16T06:16:48;138.53;;;98.63;;
12802;SDS011;6465;42.700;23.278;2024-02-16T06:19:15;129.83;;;90.27;;
12802;SDS011;6465;42.700;23.278;2024-02-16T06:21:44;36.80;;;28.23;;
12802;SDS011;6465;42.700;23.278;2024-02-16T06:24:10;38.10;;;27.70;;
12802;SDS011;6465;42.700;23.278;2024-02-16T06:26:37;30.30;;;22.53;;
12802;SDS011;6465;42.700;23.278;2024-02-16T06:29:04;62.10;;;47.80;;
12802;SDS011;6465;42.700;23.278;2024-02-16T06:31:31;55.03;;;40.67;;
12802;SDS011;6465;42.700;23.278;2024-02-16T06:33:58;37.80;;;27.70;;
12802;SDS011;6465;42.700;23.278;2024-02-16T06:36:25;29.70;;;22.23;;
12802;SDS011;6465;42.700;23.278;2024-02-16T06:38:54;28.80;;;21.47;;
12802;SDS011;6465;42.700;23.278;2024-02-16T06:41:21;28.23;;;20.90;;
12802;SDS011;6465;42.700;23.278;2024-02-16T06:43:48;29.20;;;21.37;;
12802;SDS011;6465;42.700;23.278;2024-02-16T06:46:15;37.50;;;22.70;;
12802;SDS011;6465;42.700;23.278;2024-02-16T06:48:41;28.90;;;22.07;;
12802;SDS011;6465;42.700;23.278;2024-02-16T06:51:09;30.00;;;20.93;;
12802;SDS011;6465;42.700;23.278;2024-02-16T06:53:35;33.80;;;22.77;;
12802;SDS011;6465;42.700;23.278;2024-02-16T06:56:04;31.70;;;24.63;;
12802;SDS011;6465;42.700;23.278;2024-02-16T06:58:31;34.37;;;26.77;;
12802;SDS011;6465;42.700;23.278;2024-02-16T07:00:59;30.67;;;22.97;;
12802;SDS011;6465;42.700;23.278;2024-02-16T07:03:28;25.33;;;19.33;;
12802;SDS011;6465;42.700;23.278;2024-02-16T07:05:55;27.93;;;19.63;;
12802;SDS011;6465;42.700;23.278;2024-02-16T07:08:22;25.33;;;18.43;;
12802;SDS011;6465;42.700;23.278;2024-02-16T07:10:51;24.07;;;18.37;;
12802;SDS011;6465;42.700;23.278;2024-02-16T07:13:19;25.27;;;16.67;;
12802;SDS011;6465;42.700;23.278;2024-02-16T07:15:46;29.70;;;17.13;;
12802;SDS011;6465;42.700;23.278;2024-02-16T07:18:13;24.27;;;16.43;;
12802;SDS011;6465;42.700;23.278;2024-02-16T07:20:41;22.17;;;16.57;;
12802;SDS011;6465;42.700;23.278;2024-02-16T07:23:08;19.03;;;16.03;;
12802;SDS011;6465;42.700;23.278;2024-02-16T07:25:36;25.00;;;18.77;;
12802;SDS011;6465;42.700;23.278;2024-02-16T07:28:03;26.17;;;18.60;;
12802;SDS011;6465;42.700;23.278;2024-02-16T07:30:32;27.07;;;19.73;;
12802;SDS011;6465;42.700;23.278;2024-02-16T07:33:00;28.57;;;21.10;;
12802;SDS011;6465;42.700;23.278;2024-02-16T07:35:26;32.03;;;22.70;;
12802;SDS011;6465;42.700;23.278;2024-02-16T07:37:53;31.77;;;23.57;;
12802;SDS011;6465;42.700;23.278;2024-02-16T07:40:20;32.63;;;22.70;;
12802;SDS011;6465;42.700;23.278;2024-02-16T07:42:47;27.13;;;22.30;;
12802;SDS011;6465;42.700;23.278;2024-02-16T07:45:14;27.90;;;21.90;;
12802;SDS011;6465;42.700;23.278;2024-02-16T07:47:43;29.50;;;20.63;;
12802;SDS011;6465;42.700;23.278;2024-02-16T07:50:10;22.97;;;17.50;;
12802;SDS011;6465;42.700;23.278;2024-02-16T07:52:37;23.63;;;17.20;;
12802;SDS011;6465;42.700;23.278;2024-02-16T07:55:05;17.73;;;12.00;;
12802;SDS011;6465;42.700;23.278;2024-02-16T07:57:32;13.80;;;10.70;;
12802;SDS011;6465;42.700;23.278;2024-02-16T07:59:59;12.30;;;9.67;;
12802;SDS011;6465;42.700;23.278;2024-02-16T08:02:28;9.40;;;8.50;;
12802;SDS011;6465;42.700;23.278;2024-02-16T08:04:57;11.00;;;8.83;;
12802;SDS011;6465;42.700;23.278;2024-02-16T08:07:24;13.53;;;9.07;;
12802;SDS011;6465;42.700;23.278;2024-02-16T08:09:52;11.10;;;8.17;;
12802;SDS011;6465;42.700;23.278;2024-02-16T08:12:19;15.40;;;9.73;;
12802;SDS011;6465;42.700;23.278;2024-02-16T08:14:46;16.33;;;11.10;;
12802;SDS011;6465;42.700;23.278;2024-02-16T08:17:13;18.00;;;14.67;;
12802;SDS011;6465;42.700;23.278;2024-02-16T08:19:40;24.33;;;16.03;;
12802;SDS011;6465;42.700;23.278;2024-02-16T08:22:08;24.50;;;16.20;;
12802;SDS011;6465;42.700;23.278;2024-02-16T08:24:35;27.53;;;17.97;;
12802;SDS011;6465;42.700;23.278;2024-02-16T08:27:03;26.20;;;18.20;;
12802;SDS011;6465;42.700;23.278;2024-02-16T08:29:30;25.23;;;17.50;;
12802;SDS011;6465;42.700;23.278;2024-02-16T08:31:57;23.03;;;16.07;;
12802;SDS011;6465;42.700;23.278;2024-02-16T08:34:24;24.73;;;15.97;;
12802;SDS011;6465;42.700;23.278;2024-02-16T08:36:51;26.37;;;14.07;;
12802;SDS011;6465;42.700;23.278;2024-02-16T08:39:20;17.43;;;14.83;;
12802;SDS011;6465;42.700;23.278;2024-02-16T08:41:50;21.60;;;14.47;;
12802;SDS011;6465;42.700;23.278;2024-02-16T08:44:17;19.77;;;13.47;;
12802;SDS011;6465;42.700;23.278;2024-02-16T08:46:44;17.67;;;13.67;;
12802;SDS011;6465;42.700;23.278;2024-02-16T08:49:13;18.60;;;12.60;;
12802;SDS011;6465;42.700;23.278;2024-02-16T08:51:41;16.77;;;12.30;;
12802;SDS011;6465;42.700;23.278;2024-02-16T08:54:08;19.50;;;13.03;;
12802;SDS011;6465;42.700;23.278;2024-02-16T08:56:37;20.97;;;12.00;;
12802;SDS011;6465;42.700;23.278;2024-02-16T08:59:04;14.87;;;11.07;;
12802;SDS011;6465;42.700;23.278;2024-02-16T09:01:31;14.73;;;11.63;;
12802;SDS011;6465;42.700;23.278;2024-02-16T09:03:58;15.63;;;11.90;;
12802;SDS011;6465;42.700;23.278;2024-02-16T09:06:26;14.97;;;12.17;;
12802;SDS011;6465;42.700;23.278;2024-02-16T09:08:53;19.23;;;13.47;;
12802;SDS011;6465;42.700;23.278;2024-02-16T09:11:20;13.30;;;10.67;;
12802;SDS011;6465;42.700;23.278;2024-02-16T09:13:49;13.80;;;11.20;;
12802;SDS011;6465;42.700;23.278;2024-02-16T09:16:16;12.23;;;10.63;;
12802;SDS011;6465;42.700;23.278;2024-02-16T09:18:43;17.37;;;11.17;;
12802;SDS011;6465;42.700;23.278;2024-02-16T09:21:10;13.03;;;9.80;;
12802;SDS011;6465;42.700;23.278;2024-02-16T09:23:37;15.00;;;9.63;;
12802;SDS011;6465;42.700;23.278;2024-02-16T09:26:04;11.07;;;9.97;;
12802;SDS011;6465;42.700;23.278;2024-02-16T09:28:31;9.67;;;8.03;;
12802;SDS011;6465;42.700;23.278;2024-02-16T09:31:00;12.43;;;8.80;;
12802;SDS011;6465;42.700;23.278;2024-02-16T09:33:27;9.23;;;7.23;;
12802;SDS011;6465;42.700;23.278;2024-02-16T09:35:54;11.57;;;8.13;;
12802;SDS011;6465;42.700;23.278;2024-02-16T09:38:21;8.23;;;7.40;;
12802;SDS011;6465;42.700;23.278;2024-02-16T09:40:48;6.30;;;5.70;;
12802;SDS011;6465;42.700;23.278;2024-02-16T09:43:24;6.63;;;5.77;;
12802;SDS011;6465;42.700;23.278;2024-02-16T09:45:53;7.70;;;6.90;;
12802;SDS011;6465;42.700;23.278;2024-02-16T09:48:22;5.13;;;4.73;;
12802;SDS011;6465;42.700;23.278;2024-02-16T09:50:50;8.53;;;6.27;;
12802;SDS011;6465;42.700;23.278;2024-02-16T09:53:17;12.83;;;6.57;;
12802;SDS011;6465;42.700;23.278;2024-02-16T09:55:48;8.20;;;5.80;;
12802;SDS011;6465;42.700;23.278;2024-02-16T09:58:16;7.43;;;4.70;;
12802;SDS011;6465;42.700;23.278;2024-02-16T10:00:53;5.00;;;4.70;;
12802;SDS011;6465;42.700;23.278;2024-02-16T10:03:24;6.37;;;5.40;;
12802;SDS011;6465;42.700;23.278;2024-02-16T10:05:52;6.03;;;5.00;;
12802;SDS011;6465;42.700;23.278;2024-02-16T10:08:19;7.07;;;5.77;;
12802;SDS011;6465;42.700;23.278;2024-02-16T10:10:46;7.70;;;6.47;;
12802;SDS011;6465;42.700;23.278;2024-02-16T10:13:15;4.03;;;3.77;;
12802;SDS011;6465;42.700;23.278;2024-02-16T10:15:42;5.40;;;5.00;;
12802;SDS011;6465;42.700;23.278;2024-02-16T10:18:09;5.53;;;4.83;;
12802;SDS011;6465;42.700;23.278;2024-02-16T10:20:38;9.40;;;4.83;;
12802;SDS011;6465;42.700;23.278;2024-02-16T10:23:06;8.97;;;5.53;;
12802;SDS011;6465;42.700;23.278;2024-02-16T10:25:34;9.80;;;6.37;;
12802;SDS011;6465;42.700;23.278;2024-02-16T10:28:05;9.40;;;6.30;;
12802;SDS011;6465;42.700;23.278;2024-02-16T10:30:34;8.03;;;6.87;;
12802;SDS011;6465;42.700;23.278;2024-02-16T10:33:03;10.47;;;6.60;;
12802;SDS011;6465;42.700;23.278;2024-02-16T10:35:31;8.07;;;7.27;;
12802;SDS011;6465;42.700;23.278;2024-02-16T10:38:02;9.43;;;7.00;;
12802;SDS011;6465;42.700;23.278;2024-02-16T10:40:32;7.80;;;6.40;;
12802;SDS011;6465;42.700;23.278;2024-02-16T10:43:01;7.93;;;7.07;;
12802;SDS011;6465;42.700;23.278;2024-02-16T10:45:31;7.30;;;6.70;;
12802;SDS011;6465;42.700;23.278;2024-02-16T10:47:59;6.33;;;5.60;;
12802;SDS011;6465;42.700;23.278;2024-02-16T10:50:26;5.77;;;5.17;;
12802;SDS011;6465;42.700;23.278;2024-02-16T10:52:54;7.13;;;5.90;;
12802;SDS011;6465;42.700;23.278;2024-02-16T10:55:26;4.57;;;4.10;;
12802;SDS011;6465;42.700;23.278;2024-02-16T10:57:56;5.87;;;5.03;;
12802;SDS011;6465;42.700;23.278;2024-02-16T11:00:24;7.87;;;5.40;;
12802;SDS011;6465;42.700;23.278;2024-02-16T11:02:54;6.17;;;5.57;;
12802;SDS011;6465;42.700;23.278;2024-02-16T11:05:33;6.43;;;5.83;;
12802;SDS011;6465;42.700;23.278;2024-02-16T11:08:01;7.00;;;6.30;;
12802;SDS011;6465;42.700;23.278;2024-02-16T11:10:30;6.57;;;5.87;;
12802;SDS011;6465;42.700;23.278;2024-02-16T11:13:01;8.57;;;5.80;;
12802;SDS011;6465;42.700;23.278;2024-02-16T11:15:30;6.63;;;5.30;;
12802;SDS011;6465;42.700;23.278;2024-02-16T11:18:00;5.50;;;5.00;;
12802;SDS011;6465;42.700;23.278;2024-02-16T11:20:27;4.80;;;4.40;;
12802;SDS011;6465;42.700;23.278;2024-02-16T11:23:04;6.70;;;5.00;;
12802;SDS011;6465;42.700;23.278;2024-02-16T11:25:33;5.07;;;4.57;;
12802;SDS011;6465;42.700;23.278;2024-02-16T11:28:01;5.67;;;4.93;;
12802;SDS011;6465;42.700;23.278;2024-02-16T11:30:29;5.13;;;4.80;;
12802;SDS011;6465;42.700;23.278;2024-02-16T11:33:00;5.70;;;5.20;;
12802;SDS011;6465;42.700;23.278;2024-02-16T11:35:27;5.03;;;4.53;;
12802;SDS011;6465;42.700;23.278;2024-02-16T11:37:55;6.00;;;5.50;;
12802;SDS011;6465;42.700;23.278;2024-02-16T11:40:22;6.83;;;5.70;;
12802;SDS011;6465;42.700;23.278;2024-02-16T11:42:50;6.37;;;5.67;;
12802;SDS011;6465;42.700;23.278;2024-02-16T11:45:24;7.73;;;6.70;;
12802;SDS011;6465;42.700;23.278;2024-02-16T11:47:51;7.20;;;6.10;;
12802;SDS011;6465;42.700;23.278;2024-02-16T11:50:29;5.57;;;5.07;;
12802;SDS011;6465;42.700;23.278;2024-02-16T11:52:56;6.83;;;5.17;;
12802;SDS011;6465;42.700;23.278;2024-02-16T11:55:23;6.80;;;4.93;;
12802;SDS011;6465;42.700;23.278;2024-02-16T11:57:52;4.00;;;3.70;;
12802;SDS011;6465;42.700;23.278;2024-02-16T12:00:19;6.70;;;4.97;;
12802;SDS011;6465;42.700;23.278;2024-02-16T12:02:47;6.27;;;5.30;;
12802;SDS011;6465;42.700;23.278;2024-02-16T12:05:14;5.13;;;4.33;;
12802;SDS011;6465;42.700;23.278;2024-02-16T12:07:41;6.67;;;4.30;;
12802;SDS011;6465;42.700;23.278;2024-02-16T12:10:10;8.13;;;4.80;;
12802;SDS011;6465;42.700;23.278;2024-02-16T12:12:37;5.33;;;4.77;;
12802;SDS011;6465;42.700;23.278;2024-02-16T12:15:06;6.67;;;5.40;;
12802;SDS011;6465;42.700;23.278;2024-02-16T12:17:34;6.20;;;5.60;;
12802;SDS011;6465;42.700;23.278;2024-02-16T12:20:00;5.83;;;5.30;;
12802;SDS011;6465;42.700;23.278;2024-02-16T12:22:27;5.23;;;4.73;;
12802;SDS011;6465;42.700;23.278;2024-02-16T12:24:55;6.37;;;4.23;;
12802;SDS011;6465;42.700;23.278;2024-02-16T12:27:22;6.20;;;4.17;;
12802;SDS011;6465;42.700;23.278;2024-02-16T12:29:48;8.20;;;4.57;;
12802;SDS011;6465;42.700;23.278;2024-02-16T12:32:17;5.53;;;4.30;;
12802;SDS011;6465;42.700;23.278;2024-02-16T12:34:45;4.50;;;4.10;;
12802;SDS011;6465;42.700;23.278;2024-02-16T12:37:11;8.90;;;4.63;;
12802;SDS011;6465;42.700;23.278;2024-02-16T12:39:38;7.10;;;5.00;;
12802;SDS011;6465;42.700;23.278;2024-02-16T12:42:06;5.03;;;4.63;;
12802;SDS011;6465;42.700;23.278;2024-02-16T12:44:33;4.73;;;4.30;;
12802;SDS011;6465;42.700;23.278;2024-02-16T12:47:00;5.17;;;4.57;;
12802;SDS011;6465;42.700;23.278;2024-02-16T12:49:28;4.37;;;3.97;;
12802;SDS011;6465;42.700;23.278;2024-02-16T12:51:55;4.33;;;4.03;;
12802;SDS011;6465;42.700;23.278;2024-02-16T12:54:22;4.57;;;4.23;;
12802;SDS011;6465;42.700;23.278;2024-02-16T12:56:49;4.93;;;4.53;;
12802;SDS011;6465;42.700;23.278;2024-02-16T12:59:16;4.23;;;3.83;;
12802;SDS011;6465;42.700;23.278;2024-02-16T13:01:43;5.23;;;4.67;;
12802;SDS011;6465;42.700;23.278;2024-02-16T13:04:11;4.90;;;4.33;;
12802;SDS011;6465;42.700;23.278;2024-02-16T13:06:39;5.40;;;4.87;;
12802;SDS011;6465;42.700;23.278;2024-02-16T13:09:06;5.20;;;4.70;;
12802;SDS011;6465;42.700;23.278;2024-02-16T13:11:33;4.63;;;4.23;;
12802;SDS011;6465;42.700;23.278;2024-02-16T13:14:00;4.67;;;4.27;;
12802;SDS011;6465;42.700;23.278;2024-02-16T13:16:27;5.67;;;4.07;;
12802;SDS011;6465;42.700;23.278;2024-02-16T13:18:54;5.00;;;4.50;;
12802;SDS011;6465;42.700;23.278;2024-02-16T13:21:21;4.67;;;4.27;;
12802;SDS011;6465;42.700;23.278;2024-02-16T13:23:49;4.83;;;4.43;;
12802;SDS011;6465;42.700;23.278;2024-02-16T13:26:16;4.40;;;4.00;;
12802;SDS011;6465;42.700;23.278;2024-02-16T13:28:43;5.00;;;4.50;;
12802;SDS011;6465;42.700;23.278;2024-02-16T13:31:10;4.70;;;4.30;;
12802;SDS011;6465;42.700;23.278;2024-02-16T13:33:37;4.40;;;4.07;;
12802;SDS011;6465;42.700;23.278;2024-02-16T13:36:04;4.27;;;3.97;;
12802;SDS011;6465;42.700;23.278;2024-02-16T13:38:32;4.97;;;4.47;;
12802;SDS011;6465;42.700;23.278;2024-02-16T13:41:00;4.70;;;4.30;;
12802;SDS011;6465;42.700;23.278;2024-02-16T13:43:27;4.67;;;4.23;;
12802;SDS011;6465;42.700;23.278;2024-02-16T13:45:54;4.17;;;3.87;;
12802;SDS011;6465;42.700;23.278;2024-02-16T13:48:23;5.50;;;5.00;;
12802;SDS011;6465;42.700;23.278;2024-02-16T13:50:50;7.27;;;4.50;;
12802;SDS011;6465;42.700;23.278;2024-02-16T13:53:17;5.07;;;4.67;;
12802;SDS011;6465;42.700;23.278;2024-02-16T13:55:45;5.37;;;4.40;;
12802;SDS011;6465;42.700;23.278;2024-02-16T13:58:13;5.13;;;4.63;;
12802;SDS011;6465;42.700;23.278;2024-02-16T14:00:40;5.17;;;4.63;;
12802;SDS011;6465;42.700;23.278;2024-02-16T14:03:08;5.10;;;4.63;;
12802;SDS011;6465;42.700;23.278;2024-02-16T14:05:36;5.80;;;5.30;;
12802;SDS011;6465;42.700;23.278;2024-02-16T14:08:04;6.10;;;4.33;;
12802;SDS011;6465;42.700;23.278;2024-02-16T14:10:32;5.60;;;5.07;;
12802;SDS011;6465;42.700;23.278;2024-02-16T14:12:59;4.97;;;4.33;;
12802;SDS011;6465;42.700;23.278;2024-02-16T14:15:28;7.07;;;3.97;;
12802;SDS011;6465;42.700;23.278;2024-02-16T14:17:54;7.07;;;4.73;;
12802;SDS011;6465;42.700;23.278;2024-02-16T14:20:21;4.57;;;4.17;;
12802;SDS011;6465;42.700;23.278;2024-02-16T14:22:48;4.43;;;4.13;;
12802;SDS011;6465;42.700;23.278;2024-02-16T14:25:15;4.80;;;4.40;;
12802;SDS011;6465;42.700;23.278;2024-02-16T14:27:43;5.10;;;4.70;;
12802;SDS011;6465;42.700;23.278;2024-02-16T14:30:11;4.43;;;3.73;;
12802;SDS011;6465;42.700;23.278;2024-02-16T14:32:40;6.00;;;3.70;;
12802;SDS011;6465;42.700;23.278;2024-02-16T14:35:07;5.23;;;4.10;;